createdAt,value
2023-02-02T00:00:45.144Z,15.05
2023-02-02T00:03:11.604Z,18.05
2023-02-02T00:05:38.062Z,16.88
2023-02-02T00:08:04.859Z,14.02
2023-02-02T00:10:31.284Z,12.30
2023-02-02T00:12:57.865Z,12.07
2023-02-02T00:15:25.067Z,18.83
2023-02-02T00:17:51.725Z,10.48
2023-02-02T00:20:20.446Z,11.57
2023-02-02T00:22:46.886Z,20.58
2023-02-02T00:25:13.377Z,13.07
2023-02-02T00:27:39.853Z,18.35
2023-02-02T00:30:07.310Z,15.13
2023-02-02T00:32:33.914Z,11.30
2023-02-02T00:35:00.421Z,14.75
2023-02-02T00:37:26.908Z,14.13
2023-02-02T00:39:53.382Z,11.75
2023-02-02T00:42:19.879Z,11.27
2023-02-02T00:44:46.313Z,16.08
2023-02-02T00:47:12.770Z,12.77
2023-02-02T00:49:39.276Z,17.02
2023-02-02T00:52:05.769Z,11.75
2023-02-02T00:54:32.343Z,13.23
2023-02-02T00:56:58.881Z,17.35
2023-02-02T00:59:25.365Z,8.25
2023-02-02T01:01:52.021Z,11.85
2023-02-02T01:04:18.522Z,8.40
2023-02-02T01:06:46.203Z,14.27
2023-02-02T01:09:12.964Z,7.75
2023-02-02T01:11:39.429Z,11.73
2023-02-02T01:14:06.096Z,13.80
2023-02-02T01:16:34.277Z,11.70
2023-02-02T01:19:00.815Z,10.93
2023-02-02T01:21:27.609Z,14.73
2023-02-02T01:23:54.064Z,13.82
2023-02-02T01:26:20.516Z,14.27
2023-02-02T01:28:47.289Z,11.07
2023-02-02T01:31:17.147Z,12.77
2023-02-02T01:33:45.209Z,13.48
2023-02-02T01:36:15.512Z,10.40
2023-02-02T01:38:43.260Z,12.25
2023-02-02T01:41:14.110Z,11.65
2023-02-02T01:43:43.650Z,16.02
2023-02-02T01:46:18.923Z,12.20
2023-02-02T01:48:54.953Z,11.10
2023-02-02T01:51:25.187Z,12.57
2023-02-02T01:53:54.597Z,14.98
2023-02-02T01:56:46.813Z,13.27
2023-02-02T01:59:16.333Z,10.73
2023-02-02T02:01:46.350Z,8.80
2023-02-02T02:04:13.560Z,10.43
2023-02-02T02:06:40.146Z,10.35
2023-02-02T02:09:08.276Z,9.98
2023-02-02T02:11:37.148Z,6.07
2023-02-02T02:14:07.995Z,15.25
2023-02-02T02:16:46.709Z,13.55
2023-02-02T02:19:31.845Z,11.40
2023-02-02T02:22:14.516Z,11.02
2023-02-02T02:25:01.266Z,14.32
2023-02-02T02:28:22.604Z,13.32
2023-02-02T02:31:07.323Z,10.95
2023-02-02T02:33:53.462Z,10.13
2023-02-02T02:36:25.111Z,12.40
2023-02-02T02:39:13.295Z,13.30
2023-02-02T02:41:45.986Z,11.48
2023-02-02T02:44:16.198Z,6.72
2023-02-02T02:46:43.909Z,9.00
2023-02-02T02:49:12.686Z,8.80
2023-02-02T02:51:50.239Z,7.82
2023-02-02T02:54:32.642Z,11.43
2023-02-02T02:57:22.753Z,9.27
2023-02-02T03:00:02.841Z,14.68
2023-02-02T03:03:01.406Z,13.32
2023-02-02T03:05:44.826Z,10.50
2023-02-02T03:08:27.311Z,8.63
2023-02-02T03:10:56.599Z,12.95
2023-02-02T03:13:23.509Z,9.50
2023-02-02T03:15:50.005Z,10.38
2023-02-02T03:18:19.080Z,10.23
2023-02-02T03:20:45.984Z,15.68
2023-02-02T03:23:13.237Z,12.35
2023-02-02T03:25:39.762Z,10.48
2023-02-02T03:28:06.983Z,7.05
2023-02-02T03:30:34.401Z,11.50
2023-02-02T03:33:00.924Z,12.75
2023-02-02T03:35:27.367Z,11.43
2023-02-02T03:37:53.792Z,17.33
2023-02-02T03:40:20.328Z,14.02
2023-02-02T03:42:46.760Z,14.35
2023-02-02T03:45:13.505Z,11.73
2023-02-02T03:47:39.975Z,9.20
2023-02-02T03:50:09.799Z,9.57
2023-02-02T03:52:36.395Z,13.35
2023-02-02T03:55:03.401Z,15.20
2023-02-02T03:57:29.830Z,14.43
2023-02-02T03:59:56.322Z,11.75
2023-02-02T04:02:23.251Z,7.53
2023-02-02T04:04:49.706Z,12.48
2023-02-02T04:07:16.236Z,10.23
2023-02-02T04:09:42.759Z,14.00
2023-02-02T04:12:09.249Z,5.53
2023-02-02T04:14:35.803Z,11.55
2023-02-02T04:17:02.291Z,7.30
2023-02-02T04:19:28.764Z,7.07
2023-02-02T04:21:55.228Z,8.25
2023-02-02T04:24:21.762Z,8.75
2023-02-02T04:26:48.281Z,6.85
2023-02-02T04:29:14.802Z,14.40
2023-02-02T04:31:41.309Z,10.90
2023-02-02T04:34:07.754Z,10.93
2023-02-02T04:36:34.380Z,10.75
2023-02-02T04:39:00.892Z,9.25
2023-02-02T04:41:27.388Z,13.02
2023-02-02T04:43:53.834Z,8.27
2023-02-02T04:46:20.351Z,10.65
2023-02-02T04:48:48.787Z,15.70
2023-02-02T04:51:15.486Z,9.82
2023-02-02T04:53:42.862Z,13.68
2023-02-02T04:56:17.911Z,10.43
2023-02-02T04:58:45.337Z,13.43
2023-02-02T05:01:17.421Z,14.85
2023-02-02T05:03:44.858Z,14.00
2023-02-02T05:06:13.496Z,8.30
2023-02-02T05:08:41.219Z,10.32
2023-02-02T05:11:12.337Z,9.70
2023-02-02T05:13:38.818Z,12.35
2023-02-02T05:16:06.573Z,8.90
2023-02-02T05:18:33.331Z,10.10
2023-02-02T05:21:00.759Z,8.63
2023-02-02T05:23:27.434Z,13.48
2023-02-02T05:25:54.975Z,10.70
2023-02-02T05:28:23.128Z,9.27
2023-02-02T05:30:50.110Z,7.07
2023-02-02T05:33:17.121Z,10.75
2023-02-02T05:35:48.195Z,10.48
2023-02-02T05:38:15.744Z,12.50
2023-02-02T05:40:42.508Z,13.88
2023-02-02T05:43:09.013Z,12.00
2023-02-02T05:45:35.468Z,17.98
2023-02-02T05:48:01.972Z,11.20
2023-02-02T05:50:28.462Z,13.93
2023-02-02T05:53:03.220Z,7.90
2023-02-02T05:55:29.794Z,10.32
2023-02-02T05:57:56.192Z,11.30
2023-02-02T06:00:22.938Z,7.03
2023-02-02T06:02:49.412Z,14.13
2023-02-02T06:05:15.995Z,8.90
2023-02-02T06:07:42.487Z,10.25
2023-02-02T06:10:09.263Z,12.20
2023-02-02T06:12:35.691Z,11.10
2023-02-02T06:15:02.180Z,17.75
2023-02-02T06:17:28.629Z,8.75
2023-02-02T06:19:55.122Z,11.25
2023-02-02T06:22:21.648Z,9.45
2023-02-02T06:24:48.192Z,13.63
2023-02-02T06:27:14.635Z,12.15
2023-02-02T06:29:41.126Z,5.40
2023-02-02T06:32:07.616Z,8.50
2023-02-02T06:34:34.095Z,10.35
2023-02-02T06:37:00.580Z,8.68
2023-02-02T06:39:27.078Z,10.25
2023-02-02T06:41:53.516Z,10.60
2023-02-02T06:44:20.100Z,11.85
2023-02-02T06:46:46.768Z,8.48
2023-02-02T06:49:13.409Z,14.32
2023-02-02T06:51:39.860Z,11.00
2023-02-02T06:54:06.302Z,16.67
2023-02-02T06:56:32.805Z,16.25
2023-02-02T06:58:59.246Z,11.00
2023-02-02T07:01:25.792Z,9.82
2023-02-02T07:03:53.341Z,8.32
2023-02-02T07:06:25.636Z,7.28
2023-02-02T07:08:57.613Z,8.43
2023-02-02T07:11:29.057Z,9.02
2023-02-02T07:13:55.661Z,5.53
2023-02-02T07:16:22.128Z,12.95
2023-02-02T07:18:48.689Z,11.32
2023-02-02T07:21:20.842Z,8.98
2023-02-02T07:23:47.432Z,8.02
2023-02-02T07:26:15.125Z,12.00
2023-02-02T07:28:42.158Z,8.15
2023-02-02T07:31:18.228Z,7.15
2023-02-02T07:33:45.819Z,10.88
2023-02-02T07:36:14.251Z,10.77
2023-02-02T07:38:40.735Z,7.03
2023-02-02T07:41:07.244Z,11.90
2023-02-02T07:43:33.788Z,10.00
2023-02-02T07:46:02.145Z,10.02
2023-02-02T07:48:32.047Z,6.97
2023-02-02T07:51:00.051Z,11.23
2023-02-02T07:53:27.603Z,10.35
2023-02-02T07:55:54.213Z,7.55
2023-02-02T07:58:20.659Z,8.80
2023-02-02T08:00:47.263Z,6.05
2023-02-02T08:03:13.782Z,6.88
2023-02-02T08:05:40.393Z,13.18
2023-02-02T08:08:06.905Z,9.45
2023-02-02T08:10:33.371Z,14.10
2023-02-02T08:12:59.904Z,8.90
2023-02-02T08:15:26.630Z,10.40
2023-02-02T08:17:53.251Z,14.93
2023-02-02T08:20:19.711Z,9.43
2023-02-02T08:22:46.208Z,8.73
2023-02-02T08:25:12.649Z,10.77
2023-02-02T08:27:39.296Z,8.95
2023-02-02T08:30:06.187Z,11.18
2023-02-02T08:32:32.691Z,8.80
2023-02-02T08:34:59.130Z,8.50
2023-02-02T08:37:25.609Z,6.38
2023-02-02T08:39:52.037Z,6.80
2023-02-02T08:42:18.495Z,7.78
2023-02-02T08:46:02.798Z,7.00
2023-02-02T08:47:31.467Z,5.18
2023-02-02T08:49:57.965Z,5.18
2023-02-02T08:52:25.857Z,5.10
2023-02-02T08:54:52.418Z,5.13
2023-02-02T08:57:18.892Z,5.60
2023-02-02T08:59:45.325Z,9.27
2023-02-02T09:02:11.835Z,7.65
2023-02-02T09:04:38.311Z,9.07
2023-02-02T09:07:04.777Z,8.65
2023-02-02T09:09:31.207Z,8.88
2023-02-02T09:11:57.732Z,6.40
2023-02-02T09:14:24.254Z,3.67
2023-02-02T09:16:50.914Z,6.18
2023-02-02T09:19:17.427Z,6.13
2023-02-02T09:21:43.898Z,8.98
2023-02-02T09:24:12.558Z,6.97
2023-02-02T09:26:39.730Z,5.78
2023-02-02T09:29:08.530Z,6.13
2023-02-02T09:31:37.222Z,7.78
2023-02-02T09:34:06.252Z,7.22
2023-02-02T09:36:33.530Z,8.75
2023-02-02T09:39:00.318Z,12.27
2023-02-02T09:41:38.682Z,5.68
2023-02-02T09:44:24.427Z,6.82
2023-02-02T09:47:21.448Z,7.65
2023-02-02T09:50:16.078Z,6.72
2023-02-02T09:52:45.369Z,8.95
2023-02-02T09:55:14.132Z,8.02
2023-02-02T09:57:48.855Z,7.40
2023-02-02T10:00:36.231Z,5.55
2023-02-02T10:03:22.680Z,10.38
2023-02-02T10:05:57.378Z,6.82
2023-02-02T10:08:38.542Z,5.78
2023-02-02T10:11:25.924Z,9.70
2023-02-02T10:13:56.748Z,5.85
2023-02-02T10:16:24.827Z,9.77
2023-02-02T10:19:04.586Z,7.38
2023-02-02T10:21:59.170Z,4.55
2023-02-02T10:24:29.275Z,6.75
2023-02-02T10:26:59.674Z,7.78
2023-02-02T10:29:48.613Z,6.20
2023-02-02T10:32:28.672Z,7.82
2023-02-02T10:35:18.238Z,7.38
2023-02-02T10:38:13.448Z,5.43
2023-02-02T10:40:46.113Z,4.65
2023-02-02T10:43:27.511Z,5.05
2023-02-02T10:45:56.037Z,4.35
2023-02-02T10:48:26.510Z,5.47
2023-02-02T10:50:57.803Z,4.60
2023-02-02T10:53:28.401Z,4.70
2023-02-02T10:56:08.721Z,6.30
2023-02-02T10:58:54.834Z,5.75
2023-02-02T11:01:21.351Z,4.38
2023-02-02T11:03:48.659Z,5.53
2023-02-02T11:06:16.219Z,4.70
2023-02-02T11:08:44.625Z,8.55
2023-02-02T11:11:17.410Z,5.68
2023-02-02T11:13:50.723Z,4.82
2023-02-02T11:16:17.284Z,4.05
2023-02-02T11:18:45.004Z,4.30
2023-02-02T11:21:24.446Z,6.18
2023-02-02T11:23:53.799Z,3.05
2023-02-02T11:26:21.908Z,5.75
2023-02-02T11:28:49.557Z,3.03
2023-02-02T11:31:35.599Z,3.70
2023-02-02T11:34:28.528Z,2.40
2023-02-02T11:37:21.377Z,2.83
2023-02-02T11:39:48.061Z,3.33
2023-02-02T11:42:20.808Z,2.70
2023-02-02T11:44:53.468Z,4.88
2023-02-02T11:47:30.359Z,5.88
2023-02-02T11:49:58.795Z,3.08
2023-02-02T11:52:29.641Z,4.57
2023-02-02T11:55:01.419Z,3.85
2023-02-02T11:57:29.098Z,3.28
2023-02-02T12:00:10.901Z,5.47
2023-02-02T12:02:37.496Z,2.58
2023-02-02T12:05:10.010Z,2.80
2023-02-02T12:07:36.648Z,5.43
2023-02-02T12:10:18.788Z,4.47
2023-02-02T12:12:54.662Z,2.45
2023-02-02T12:15:25.930Z,4.38
2023-02-02T12:18:01.908Z,3.60
2023-02-02T12:21:00.596Z,5.28
2023-02-02T12:23:55.057Z,7.53
2023-02-02T12:26:27.276Z,4.13
2023-02-02T12:29:16.785Z,3.60
2023-02-02T12:32:20.767Z,3.25
2023-02-02T12:35:05.198Z,4.18
2023-02-02T12:37:57.552Z,2.95
2023-02-02T12:40:42.372Z,3.08
2023-02-02T12:43:18.996Z,4.22
2023-02-02T12:46:06.980Z,4.00
2023-02-02T12:48:45.680Z,7.60
2023-02-02T12:51:50.351Z,4.15
2023-02-02T12:54:47.866Z,3.40
2023-02-02T12:57:54.871Z,3.03
2023-02-02T13:00:38.855Z,4.30
2023-02-02T13:03:15.842Z,4.43
2023-02-02T13:05:50.310Z,2.88
2023-02-02T13:08:23.558Z,2.67
2023-02-02T13:10:54.787Z,5.68
2023-02-02T13:13:36.110Z,3.92
2023-02-02T13:16:21.034Z,3.47
2023-02-02T13:18:54.944Z,7.25
2023-02-02T13:21:24.600Z,5.72
2023-02-02T13:23:55.651Z,4.43
2023-02-02T13:26:44.201Z,4.43
2023-02-02T13:29:10.679Z,4.25
2023-02-02T13:31:51.716Z,7.07
2023-02-02T13:34:24.399Z,4.68
2023-02-02T13:36:59.324Z,4.50
2023-02-02T13:39:34.854Z,4.57
2023-02-02T13:42:03.154Z,4.32
2023-02-02T13:44:38.234Z,4.93
2023-02-02T13:47:34.976Z,4.20
2023-02-02T13:50:09.809Z,3.83
2023-02-02T13:52:45.111Z,6.38
2023-02-02T13:55:26.901Z,5.18
2023-02-02T13:58:19.302Z,3.78
2023-02-02T14:00:49.610Z,5.40
2023-02-02T14:03:48.335Z,3.17
2023-02-02T14:06:22.268Z,4.03
2023-02-02T14:09:01.448Z,4.05
2023-02-02T14:11:32.662Z,4.70
2023-02-02T14:14:21.261Z,5.05
2023-02-02T14:16:49.703Z,5.53
2023-02-02T14:19:41.552Z,4.78
2023-02-02T14:22:11.481Z,3.85
2023-02-02T14:24:37.903Z,3.65
2023-02-02T14:27:07.496Z,4.45
2023-02-02T14:29:35.209Z,3.78
2023-02-02T14:32:37.324Z,5.55
2023-02-02T14:35:12.915Z,6.22
2023-02-02T14:37:51.156Z,3.70
2023-02-02T14:40:53.029Z,3.58
2023-02-02T14:46:14.976Z,2.85
2023-02-02T14:48:46.561Z,2.67
2023-02-02T14:53:54.903Z,1.48
2023-02-02T14:56:39.983Z,1.60
2023-02-02T14:59:06.957Z,1.17
2023-02-02T15:01:35.493Z,5.95
2023-02-02T15:04:23.927Z,4.65
2023-02-02T15:06:51.884Z,1.92
2023-02-02T15:09:21.137Z,1.88
2023-02-02T15:12:01.655Z,3.03
2023-02-02T15:14:28.401Z,1.93
2023-02-02T15:16:55.643Z,1.55
2023-02-02T15:19:34.219Z,1.92
2023-02-02T15:22:18.432Z,3.50
2023-02-02T15:24:45.822Z,1.80
2023-02-02T15:27:18.393Z,2.58
2023-02-02T15:29:49.338Z,2.40
2023-02-02T15:32:18.873Z,3.80
2023-02-02T15:34:48.242Z,1.77
2023-02-02T15:37:19.962Z,3.88
2023-02-02T15:39:51.007Z,1.83
2023-02-02T15:42:41.192Z,2.90
2023-02-02T15:45:27.704Z,5.53
2023-02-02T15:47:55.636Z,2.30
2023-02-02T15:50:22.354Z,2.60
2023-02-02T15:52:50.983Z,2.13
2023-02-02T15:55:30.435Z,2.33
2023-02-02T15:57:57.182Z,4.47
2023-02-02T16:00:32.722Z,4.55
2023-02-02T16:02:59.200Z,2.70
2023-02-02T16:05:31.440Z,3.33
2023-02-02T16:08:05.610Z,2.63
2023-02-02T16:10:33.807Z,2.42
2023-02-02T16:13:00.348Z,2.53
2023-02-02T16:15:28.917Z,2.42
2023-02-02T16:17:59.218Z,2.40
2023-02-02T16:20:28.153Z,3.05
2023-02-02T16:22:57.324Z,2.70
2023-02-02T16:25:24.154Z,4.15
2023-02-02T16:27:51.190Z,3.15
2023-02-02T16:30:47.777Z,4.18
2023-02-02T16:33:30.824Z,4.53
2023-02-02T16:35:57.724Z,2.22
2023-02-02T16:38:35.154Z,3.08
2023-02-02T16:41:13.581Z,2.40
2023-02-02T16:43:42.084Z,3.05
2023-02-02T16:46:14.003Z,3.38
2023-02-02T16:48:58.245Z,3.60
2023-02-02T16:51:28.737Z,1.48
2023-02-02T16:54:06.322Z,5.60
2023-02-02T16:56:38.299Z,2.10
2023-02-02T16:59:13.767Z,2.67
2023-02-02T17:01:48.522Z,3.75
2023-02-02T17:04:26.031Z,3.65
2023-02-02T17:06:55.130Z,3.13
2023-02-02T17:09:33.137Z,3.85
2023-02-02T17:12:32.144Z,2.70
2023-02-02T17:15:02.898Z,4.03
2023-02-02T17:17:29.394Z,3.20
2023-02-02T17:19:56.318Z,4.28
2023-02-02T17:22:25.941Z,2.63
2023-02-02T17:24:53.040Z,3.63
2023-02-02T17:27:29.009Z,1.95
2023-02-02T17:29:56.825Z,2.65
2023-02-02T17:32:23.345Z,4.00
2023-02-02T17:34:49.849Z,8.73
2023-02-02T17:37:16.370Z,5.90
2023-02-02T17:39:42.985Z,4.90
2023-02-02T17:42:35.793Z,8.40
2023-02-02T17:45:02.270Z,5.47
2023-02-02T17:47:28.824Z,5.20
2023-02-02T17:49:55.417Z,6.00
2023-02-02T17:52:21.901Z,7.97
2023-02-02T17:54:48.395Z,5.88
2023-02-02T17:57:14.899Z,6.05
2023-02-02T17:59:41.378Z,9.77
2023-02-02T18:02:12.699Z,9.55
2023-02-02T18:04:39.237Z,7.53
2023-02-02T18:07:05.760Z,9.55
2023-02-02T18:09:33.790Z,9.25
2023-02-02T18:12:00.446Z,5.90
2023-02-02T18:14:26.973Z,5.75
2023-02-02T18:16:53.459Z,6.40
2023-02-02T18:19:19.963Z,5.65
2023-02-02T18:21:46.423Z,7.03
2023-02-02T18:24:13.601Z,8.18
2023-02-02T18:26:40.107Z,7.40
2023-02-02T18:29:06.925Z,9.60
2023-02-02T18:31:33.515Z,11.75
2023-02-02T18:34:00.226Z,7.43
2023-02-02T18:36:26.712Z,8.07
2023-02-02T18:38:53.217Z,8.48
2023-02-02T18:41:20.490Z,10.85
2023-02-02T18:43:47.511Z,8.40
2023-02-02T18:46:15.791Z,6.20
2023-02-02T18:48:42.907Z,6.95
2023-02-02T18:51:15.040Z,8.95
2023-02-02T18:53:46.129Z,8.18
2023-02-02T18:56:14.689Z,7.07
2023-02-02T18:58:41.579Z,7.63
2023-02-02T19:01:16.347Z,9.63
2023-02-02T19:03:47.128Z,6.35
2023-02-02T19:06:13.760Z,9.75
2023-02-02T19:08:40.239Z,14.00
2023-02-02T19:11:15.146Z,8.85
2023-02-02T19:13:41.652Z,6.70
2023-02-02T19:16:40.516Z,6.78
2023-02-02T19:19:22.008Z,11.75
2023-02-02T19:21:48.697Z,7.90
2023-02-02T19:24:15.147Z,9.45
2023-02-02T19:26:46.164Z,8.00
2023-02-02T19:29:23.315Z,6.72
2023-02-02T19:31:58.662Z,10.32
2023-02-02T19:34:25.239Z,8.93
2023-02-02T19:36:51.773Z,12.30
2023-02-02T19:39:29.703Z,11.88
2023-02-02T19:42:00.418Z,8.63
2023-02-02T19:44:31.016Z,8.27
2023-02-02T19:46:57.829Z,11.02
2023-02-02T19:49:32.283Z,8.07
2023-02-02T19:51:59.709Z,6.88
2023-02-02T19:54:28.024Z,10.98
2023-02-02T19:57:13.757Z,7.70
2023-02-02T19:59:41.716Z,12.20
2023-02-02T20:02:37.367Z,10.23
2023-02-02T20:05:17.588Z,10.48
2023-02-02T20:07:44.116Z,6.35
2023-02-02T20:10:23.781Z,7.43
2023-02-02T20:12:51.758Z,12.98
2023-02-02T20:15:34.421Z,6.75
2023-02-02T20:18:05.147Z,8.15
2023-02-02T20:20:43.767Z,9.07
2023-02-02T20:23:35.934Z,7.97
2023-02-02T20:26:07.728Z,10.60
2023-02-02T20:28:45.103Z,10.73
2023-02-02T20:31:18.279Z,9.85
2023-02-02T20:33:51.957Z,7.47
2023-02-02T20:36:30.131Z,8.50
2023-02-02T20:39:00.058Z,7.75
2023-02-02T20:41:26.826Z,9.35
2023-02-02T20:43:53.315Z,10.20
2023-02-02T20:46:19.866Z,14.27
2023-02-02T20:48:46.385Z,8.27
2023-02-02T20:51:12.910Z,10.05
2023-02-02T20:53:39.614Z,7.13
2023-02-02T20:56:06.297Z,9.95
2023-02-02T20:58:32.821Z,9.30
2023-02-02T21:00:59.367Z,8.18
2023-02-02T21:03:25.881Z,7.35
2023-02-02T21:05:52.409Z,8.38
2023-02-02T21:08:18.857Z,14.23
2023-02-02T21:10:45.318Z,9.32
2023-02-02T21:13:11.817Z,9.70
2023-02-02T21:15:38.330Z,7.60
2023-02-02T21:18:04.846Z,7.00
2023-02-02T21:20:31.379Z,8.65
2023-02-02T21:22:57.850Z,5.25
2023-02-02T21:25:25.063Z,7.03
2023-02-02T21:27:57.462Z,5.78
2023-02-02T21:30:23.937Z,10.73
2023-02-02T21:32:50.472Z,8.40
2023-02-02T21:35:17.311Z,10.88
2023-02-02T21:37:43.882Z,4.80
2023-02-02T21:40:15.205Z,7.85
2023-02-02T21:42:47.689Z,7.70
2023-02-02T21:45:20.207Z,7.20
2023-02-02T21:47:53.744Z,12.38
2023-02-02T21:50:42.406Z,7.00
2023-02-02T21:53:20.683Z,10.65
2023-02-02T21:55:50.070Z,10.90
2023-02-02T21:58:35.062Z,10.07
2023-02-02T22:01:22.553Z,7.72
2023-02-02T22:03:49.407Z,10.27
2023-02-02T22:06:28.407Z,10.63
2023-02-02T22:09:26.101Z,9.63
2023-02-02T22:12:00.518Z,9.07
2023-02-02T22:14:40.900Z,9.73
2023-02-02T22:17:34.165Z,8.60
2023-02-02T22:20:07.175Z,9.50
2023-02-02T22:22:36.180Z,7.47
2023-02-02T22:25:33.430Z,9.30
2023-02-02T22:28:13.088Z,13.07
2023-02-02T22:30:41.650Z,8.93
2023-02-02T22:33:10.457Z,7.65
2023-02-02T22:35:37.946Z,12.20
2023-02-02T22:38:05.010Z,15.93
2023-02-02T22:40:31.606Z,9.93
2023-02-02T22:43:05.274Z,7.60
2023-02-02T22:45:32.028Z,11.35
2023-02-02T22:47:58.624Z,9.60
2023-02-02T22:50:28.235Z,9.35
2023-02-02T22:52:55.134Z,10.20
2023-02-02T22:55:22.224Z,10.93
2023-02-02T22:57:48.794Z,9.40
2023-02-02T23:00:21.729Z,12.57
2023-02-02T23:02:48.576Z,7.45
2023-02-02T23:05:16.970Z,9.65
2023-02-02T23:07:44.015Z,11.05
2023-02-02T23:10:17.183Z,8.23
2023-02-02T23:12:44.274Z,10.82
2023-02-02T23:15:12.289Z,10.00
2023-02-02T23:17:38.990Z,8.90
2023-02-02T23:20:07.990Z,6.28
2023-02-02T23:22:34.545Z,5.97
2023-02-02T23:25:01.030Z,12.73
2023-02-02T23:27:27.722Z,10.65
2023-02-02T23:29:54.198Z,11.68
2023-02-02T23:32:20.780Z,9.18
2023-02-02T23:34:47.315Z,10.23
2023-02-02T23:37:13.831Z,10.27
2023-02-02T23:39:40.308Z,9.57
2023-02-02T23:42:06.791Z,8.85
2023-02-02T23:44:33.228Z,11.43
2023-02-02T23:47:01.782Z,9.15
2023-02-02T23:49:30.248Z,10.90
2023-02-02T23:51:56.925Z,6.88
2023-02-02T23:54:23.499Z,9.85
2023-02-02T23:56:50.656Z,10.27
2023-02-02T23:59:17.355Z,6.75
